This is the latest recevied weather packets stored in our database for station/object KI5GCD-13. If no packets are shown the sender has not sent any weather packets the latest 10 day(s).
| Time | Temp. | Humidity | Pressure | Rain* | Wind** | Luminosity | Snow |
|---|---|---|---|---|---|---|---|
| 1777519187 | 11.11° C | 91% | 1014.3 hPa | 0 mm | 0 m/s | - | - |
| 1777518887 | 11.67° C | 89% | 1014.4 hPa | 0 mm | 0 m/s | - | - |
| 1777518587 | 11.67° C | 89% | 1014.2 hPa | 0 mm | 0 m/s | - | - |
| 1777518288 | 12.22° C | 88% | 1014.4 hPa | 0 mm | 0 m/s | - | - |
| 1777517987 | 12.22° C | 88% | 1014.4 hPa | 0 mm | 0 m/s | - | - |
| 1777517687 | 12.22° C | 87% | 1014.1 hPa | 0 mm | 0 m/s | - | - |
| 1777517387 | 12.78° C | 86% | 1014 hPa | 0 mm | 0 m/s | - | - |
| 1777517087 | 12.78° C | 85% | 1014 hPa | 0 mm | 0 m/s | - | - |
| 1777516787 | 12.78° C | 84% | 1014.1 hPa | 0 mm | 0 m/s | - | - |
| 1777516487 | 12.78° C | 83% | 1013.9 hPa | 0 mm | 0 m/s | - | - |
| 1777516187 | 13.33° C | 81% | 1013.8 hPa | 0 mm | 0.45 m/s, 314° | - | - |
| 1777515887 | 13.33° C | 79% | 1013.8 hPa | 0 mm | 0.45 m/s, 206° | - | - |
| 1777515587 | 13.33° C | 80% | 1013.8 hPa | 0 mm | 0 m/s | - | - |
| 1777515287 | 13.33° C | 78% | 1013.7 hPa | 0 mm | 0.89 m/s, 298° | - | - |
| 1777514987 | 13.33° C | 80% | 1013.7 hPa | 0 mm | 0.45 m/s, 276° | - | - |
| 1777514687 | 12.78° C | 85% | 1013.7 hPa | 0 mm | 0 m/s | - | - |
| 1777514387 | 12.78° C | 86% | 1013.6 hPa | 0 mm | 0 m/s | - | - |
| 1777514087 | 13.33° C | 86% | 1013.5 hPa | 0 mm | 0 m/s | - | - |
| 1777513787 | 13.33° C | 84% | 1013.4 hPa | 0 mm | 0 m/s | - | - |
| 1777513487 | 13.33° C | 86% | 1013.2 hPa | 0 mm | 0 m/s | - | - |
| 1777513187 | 13.33° C | 86% | 1013.5 hPa | 0 mm | 0 m/s | - | - |
| 1777512887 | 13.89° C | 84% | 1013.4 hPa | 0 mm | 0 m/s | - | - |
| 1777512587 | 13.89° C | 83% | 1013.3 hPa | 0 mm | 0 m/s | - | - |
| 1777512287 | 13.89° C | 80% | 1013.4 hPa | 0 mm | 0 m/s | - | - |
| 1777511987 | 14.44° C | 78% | 1013.3 hPa | 0 mm | 0 m/s | - | - |
* Rain latest hour (hover to see other rain measurements)
** Current wind speed in m/s (hover to see current wind gust speed)